createdAt,value
2018-03-06T00:00:27.049Z,66.04
2018-03-06T00:02:57.268Z,66.24
2018-03-06T00:05:26.986Z,66.18
2018-03-06T00:07:56.998Z,65.80
2018-03-06T00:10:26.781Z,65.83
2018-03-06T00:12:56.799Z,66.14
2018-03-06T00:15:27.064Z,66.08
2018-03-06T00:17:57.006Z,66.08
2018-03-06T00:20:27.534Z,66.27
2018-03-06T00:22:57.854Z,66.19
2018-03-06T00:25:27.949Z,66.42
2018-03-06T00:27:59.536Z,66.66
2018-03-06T00:30:29.085Z,66.71
2018-03-06T00:33:00.152Z,66.75
2018-03-06T00:35:31.617Z,66.91
2018-03-06T00:38:05.123Z,66.94
2018-03-06T00:40:35.514Z,67.33
2018-03-06T00:43:06.660Z,67.29
2018-03-06T00:45:36.245Z,67.30
2018-03-06T00:48:06.513Z,67.32
2018-03-06T00:50:36.498Z,67.30
2018-03-06T00:53:06.421Z,67.41
2018-03-06T00:55:36.474Z,67.59
2018-03-06T00:58:06.104Z,67.68
2018-03-06T01:00:35.785Z,67.73
2018-03-06T01:03:07.732Z,67.70
2018-03-06T01:05:37.657Z,68.05
2018-03-06T01:08:09.589Z,68.04
2018-03-06T01:10:39.364Z,68.23
2018-03-06T01:13:09.261Z,68.29
2018-03-06T01:15:41.397Z,68.27
2018-03-06T01:18:11.330Z,68.31
2018-03-06T01:20:41.233Z,68.33
2018-03-06T01:23:11.337Z,68.34
2018-03-06T01:25:41.505Z,68.38
2018-03-06T01:28:13.155Z,68.35
2018-03-06T01:30:43.533Z,68.39
2018-03-06T01:33:13.861Z,68.50
2018-03-06T01:35:43.591Z,68.52
2018-03-06T01:38:13.655Z,68.69
2018-03-06T01:40:44.009Z,68.68
2018-03-06T01:43:14.183Z,68.86
2018-03-06T01:45:43.980Z,68.66
2018-03-06T01:48:13.944Z,68.73
2018-03-06T01:50:44.030Z,68.68
2018-03-06T01:53:14.752Z,68.29
2018-03-06T01:55:44.437Z,68.22
2018-03-06T01:58:14.434Z,68.24
2018-03-06T02:00:44.221Z,68.16
2018-03-06T02:03:14.622Z,68.16
2018-03-06T02:05:45.336Z,68.29
2018-03-06T02:08:15.139Z,68.40
2018-03-06T02:10:45.178Z,68.47
2018-03-06T02:13:16.422Z,68.41
2018-03-06T02:15:48.155Z,68.30
2018-03-06T02:18:18.880Z,68.20
2018-03-06T02:20:49.186Z,67.98
2018-03-06T02:23:19.147Z,68.07
2018-03-06T02:25:49.144Z,67.91
2018-03-06T02:28:19.730Z,67.70
2018-03-06T02:30:49.387Z,67.69
2018-03-06T02:33:19.179Z,67.65
2018-03-06T02:35:49.101Z,67.78
2018-03-06T02:38:19.019Z,67.88
2018-03-06T02:40:49.282Z,67.87
2018-03-06T02:43:19.193Z,68.07
2018-03-06T02:45:49.112Z,68.13
2018-03-06T02:48:19.387Z,68.11
2018-03-06T02:50:50.192Z,68.18
2018-03-06T02:53:19.846Z,68.17
2018-03-06T02:55:51.356Z,68.33
2018-03-06T02:58:21.177Z,68.41
2018-03-06T03:00:50.997Z,68.46
2018-03-06T03:03:20.778Z,68.40
2018-03-06T03:05:50.445Z,68.54
2018-03-06T03:08:20.391Z,68.57
2018-03-06T03:10:51.142Z,68.67
2018-03-06T03:13:22.840Z,68.81
2018-03-06T03:15:52.583Z,68.88
2018-03-06T03:18:22.763Z,68.91
2018-03-06T03:20:52.617Z,68.72
2018-03-06T03:23:23.831Z,68.60
2018-03-06T03:25:53.863Z,68.54
2018-03-06T03:28:24.039Z,68.74
2018-03-06T03:30:56.675Z,69.15
2018-03-06T03:33:27.625Z,69.63
2018-03-06T03:36:01.914Z,69.35
2018-03-06T03:38:33.340Z,69.40
2018-03-06T03:41:04.998Z,69.46
2018-03-06T03:43:35.178Z,69.53
2018-03-06T03:46:08.446Z,69.57
2018-03-06T03:48:38.063Z,69.56
2018-03-06T03:51:08.449Z,69.44
2018-03-06T03:53:38.688Z,69.20
2018-03-06T03:56:11.907Z,69.06
2018-03-06T03:58:42.163Z,69.05
2018-03-06T04:01:13.417Z,69.13
2018-03-06T04:03:42.846Z,69.12
2018-03-06T04:06:12.601Z,69.15
2018-03-06T04:08:43.327Z,69.16
2018-03-06T04:11:13.077Z,69.28
2018-03-06T04:13:42.913Z,69.29
2018-03-06T04:16:12.829Z,69.38
2018-03-06T04:18:44.052Z,69.34
2018-03-06T04:21:14.595Z,69.46
2018-03-06T04:23:44.181Z,69.40
2018-03-06T04:26:14.648Z,69.39
2018-03-06T04:28:45.668Z,69.50
2018-03-06T04:31:16.041Z,69.52
2018-03-06T04:33:45.689Z,69.56
2018-03-06T04:36:16.851Z,69.52
2018-03-06T04:38:47.674Z,69.32
2018-03-06T04:41:17.944Z,69.29
2018-03-06T04:43:48.715Z,69.24
2018-03-06T04:46:19.410Z,69.29
2018-03-06T04:48:49.099Z,69.15
2018-03-06T04:51:18.652Z,69.18
2018-03-06T04:53:48.572Z,69.29
2018-03-06T04:56:18.888Z,69.26
2018-03-06T04:58:49.220Z,69.23
2018-03-06T05:01:20.369Z,69.26
2018-03-06T05:03:51.251Z,69.30
2018-03-06T05:06:21.497Z,69.17
2018-03-06T05:08:51.388Z,68.93
2018-03-06T05:11:21.047Z,68.99
2018-03-06T05:13:50.628Z,68.92
2018-03-06T05:16:20.625Z,69.10
2018-03-06T05:18:50.965Z,69.36
2018-03-06T05:21:21.613Z,69.14
2018-03-06T05:23:51.636Z,68.82
2018-03-06T05:26:22.850Z,69.38
2018-03-06T05:28:53.445Z,70.30
2018-03-06T05:31:23.814Z,70.08
2018-03-06T05:33:53.912Z,69.41
2018-03-06T05:36:23.577Z,69.22
2018-03-06T05:38:53.752Z,69.25
2018-03-06T05:41:23.224Z,69.12
2018-03-06T05:43:53.803Z,69.04
2018-03-06T05:46:23.520Z,69.45
2018-03-06T05:48:52.964Z,69.35
2018-03-06T05:51:23.669Z,69.11
2018-03-06T05:53:53.621Z,69.03
2018-03-06T05:56:23.047Z,69.02
2018-03-06T05:58:53.135Z,68.99
2018-03-06T06:01:23.209Z,69.14
2018-03-06T06:03:53.733Z,69.14
2018-03-06T06:06:23.892Z,68.95
2018-03-06T06:08:53.995Z,68.61
2018-03-06T06:11:23.634Z,68.36
2018-03-06T06:13:53.588Z,68.34
2018-03-06T06:16:23.376Z,68.16
2018-03-06T06:18:52.888Z,67.97
2018-03-06T06:21:22.985Z,67.82
2018-03-06T06:23:52.454Z,67.54
2018-03-06T06:26:22.744Z,67.25
2018-03-06T06:28:52.916Z,66.98
2018-03-06T06:31:22.597Z,66.73
2018-03-06T06:33:52.482Z,66.59
2018-03-06T06:36:22.581Z,66.45
2018-03-06T06:38:52.813Z,66.41
2018-03-06T06:41:23.303Z,66.16
2018-03-06T06:43:53.278Z,65.77
2018-03-06T06:46:22.946Z,65.74
2018-03-06T06:48:52.821Z,65.60
2018-03-06T06:51:23.409Z,65.16
2018-03-06T06:53:53.059Z,64.80
2018-03-06T06:56:22.582Z,64.19
2018-03-06T06:58:53.439Z,63.61
2018-03-06T07:01:23.459Z,63.31
2018-03-06T07:03:54.761Z,63.14
2018-03-06T07:06:24.589Z,63.34
2018-03-06T07:08:54.978Z,63.85
2018-03-06T07:11:26.216Z,62.76
2018-03-06T07:13:57.570Z,62.24
2018-03-06T07:16:27.452Z,62.03
2018-03-06T07:18:57.601Z,61.40
2018-03-06T07:21:27.862Z,60.75
2018-03-06T07:23:58.594Z,60.14
2018-03-06T07:26:29.244Z,59.39
2018-03-06T07:28:59.506Z,59.46
2018-03-06T07:31:29.677Z,59.08
2018-03-06T07:34:03.297Z,58.66
2018-03-06T07:36:33.093Z,59.01
2018-03-06T07:39:04.721Z,59.00
2018-03-06T07:41:35.304Z,58.98
2018-03-06T07:44:07.791Z,59.79
2018-03-06T07:46:37.925Z,60.00
2018-03-06T07:49:07.600Z,60.35
2018-03-06T07:51:37.334Z,60.70
2018-03-06T07:54:07.468Z,61.34
2018-03-06T07:56:36.974Z,61.71
2018-03-06T07:59:06.704Z,61.38
2018-03-06T08:01:36.550Z,61.19
2018-03-06T08:04:06.253Z,60.72
2018-03-06T08:06:35.845Z,61.44
2018-03-06T08:09:05.990Z,60.42
2018-03-06T08:11:35.858Z,60.67
2018-03-06T08:14:07.319Z,60.17
2018-03-06T08:16:37.425Z,59.42
2018-03-06T08:19:06.884Z,58.75
2018-03-06T08:21:36.831Z,58.49
2018-03-06T08:24:07.262Z,58.78
2018-03-06T08:26:36.820Z,58.73
2018-03-06T08:29:07.223Z,58.68
2018-03-06T08:31:37.081Z,58.29
2018-03-06T08:34:06.685Z,58.22
2018-03-06T08:36:36.933Z,58.55
2018-03-06T08:39:07.275Z,57.77
2018-03-06T08:41:36.964Z,58.61
2018-03-06T08:44:08.657Z,57.21
2018-03-06T08:46:38.990Z,57.16
2018-03-06T08:49:09.293Z,56.32
2018-03-06T08:51:39.025Z,56.04
2018-03-06T08:54:09.495Z,55.81
2018-03-06T08:56:39.821Z,56.03
2018-03-06T08:59:09.802Z,56.29
2018-03-06T09:01:40.645Z,56.37
2018-03-06T09:04:10.394Z,56.46
2018-03-06T09:06:41.643Z,56.05
2018-03-06T09:09:11.488Z,56.37
2018-03-06T09:11:41.819Z,55.95
2018-03-06T09:14:12.008Z,56.15
2018-03-06T09:16:42.305Z,55.64
2018-03-06T09:19:12.325Z,55.60
2018-03-06T09:21:43.255Z,56.04
2018-03-06T09:24:13.005Z,56.31
2018-03-06T09:26:42.449Z,55.92
2018-03-06T09:29:12.631Z,56.12
2018-03-06T09:31:42.637Z,55.52
2018-03-06T09:34:12.063Z,54.79
2018-03-06T09:36:41.658Z,54.03
2018-03-06T09:39:12.149Z,52.89
2018-03-06T09:41:42.771Z,52.70
2018-03-06T09:44:12.202Z,53.07
2018-03-06T09:46:42.453Z,54.25
2018-03-06T09:49:11.916Z,53.11
2018-03-06T09:51:41.764Z,52.72
2018-03-06T09:54:11.692Z,53.44
2018-03-06T09:56:41.421Z,53.33
2018-03-06T09:59:11.509Z,54.15
2018-03-06T10:01:42.595Z,54.87
2018-03-06T10:04:12.554Z,53.70
2018-03-06T10:06:43.715Z,52.30
2018-03-06T10:09:13.632Z,51.99
2018-03-06T10:11:43.706Z,51.81
2018-03-06T10:14:14.377Z,52.41
2018-03-06T10:16:44.744Z,52.48
2018-03-06T10:19:14.942Z,52.38
2018-03-06T10:21:45.901Z,52.69
2018-03-06T10:24:16.561Z,52.41
2018-03-06T10:26:46.803Z,50.68
2018-03-06T10:29:17.373Z,49.93
2018-03-06T10:31:47.859Z,49.55
2018-03-06T10:34:17.961Z,49.09
2018-03-06T10:36:47.808Z,49.57
2018-03-06T10:39:18.562Z,49.65
2018-03-06T10:41:48.797Z,48.93
2018-03-06T10:44:19.208Z,49.89
2018-03-06T10:46:49.646Z,49.14
2018-03-06T10:49:19.248Z,48.11
2018-03-06T10:51:48.768Z,47.59
2018-03-06T10:54:19.069Z,47.75
2018-03-06T10:56:48.779Z,47.92
2018-03-06T10:59:18.953Z,47.13
2018-03-06T11:01:53.358Z,46.97
2018-03-06T11:04:23.305Z,46.29
2018-03-06T11:06:54.070Z,45.60
2018-03-06T11:09:23.877Z,46.76
2018-03-06T11:11:53.807Z,47.84
2018-03-06T11:14:23.609Z,48.16
2018-03-06T11:16:54.346Z,48.53
2018-03-06T11:19:24.263Z,49.06
2018-03-06T11:21:54.054Z,48.61
2018-03-06T11:24:24.506Z,47.58
2018-03-06T11:26:53.935Z,47.11
2018-03-06T11:29:23.520Z,47.17
2018-03-06T11:31:53.545Z,46.72
2018-03-06T11:34:23.275Z,47.38
2018-03-06T11:36:55.148Z,48.13
2018-03-06T11:39:24.785Z,47.17
2018-03-06T11:41:55.577Z,46.69
2018-03-06T11:44:26.901Z,46.74
2018-03-06T11:46:57.590Z,46.62
2018-03-06T11:49:27.677Z,45.75
2018-03-06T11:51:57.201Z,45.51
2018-03-06T11:54:26.702Z,45.51
2018-03-06T11:56:56.447Z,45.91
2018-03-06T11:59:26.019Z,46.09
2018-03-06T12:01:56.258Z,46.43
2018-03-06T12:04:25.903Z,46.59
2018-03-06T12:06:56.904Z,47.05
2018-03-06T12:09:26.676Z,46.69
2018-03-06T12:11:56.143Z,46.75
2018-03-06T12:14:26.281Z,47.44
2018-03-06T12:16:56.177Z,47.11
2018-03-06T12:19:25.780Z,46.53
2018-03-06T12:21:55.558Z,45.61
2018-03-06T12:24:25.493Z,45.78
2018-03-06T12:26:55.083Z,45.99
2018-03-06T12:29:24.771Z,45.95
2018-03-06T12:31:54.663Z,45.88
2018-03-06T12:34:25.533Z,45.69
2018-03-06T12:36:55.131Z,46.14
2018-03-06T12:39:24.829Z,46.49
2018-03-06T12:41:55.219Z,46.09
2018-03-06T12:44:25.781Z,46.32
2018-03-06T12:46:56.134Z,45.64
2018-03-06T12:49:25.781Z,45.65
2018-03-06T12:51:55.893Z,45.14
2018-03-06T12:54:25.462Z,45.76
2018-03-06T12:56:55.833Z,46.43
2018-03-06T12:59:26.177Z,46.50
2018-03-06T13:01:55.896Z,46.70
2018-03-06T13:04:26.642Z,47.30
2018-03-06T13:06:56.492Z,48.41
2018-03-06T13:09:26.109Z,48.32
2018-03-06T13:11:55.688Z,48.61
2018-03-06T13:14:25.484Z,48.35
2018-03-06T13:16:55.739Z,47.51
2018-03-06T13:19:25.445Z,47.13
2018-03-06T13:21:55.311Z,46.76
2018-03-06T13:24:24.885Z,46.94
2018-03-06T13:26:55.292Z,47.12
2018-03-06T13:29:24.911Z,47.47
2018-03-06T13:31:54.537Z,48.03
2018-03-06T13:34:25.903Z,48.55
2018-03-06T13:36:56.139Z,48.38
2018-03-06T13:39:25.853Z,48.34
2018-03-06T13:41:56.666Z,47.78
2018-03-06T13:44:26.376Z,47.67
2018-03-06T13:46:57.077Z,48.14
2018-03-06T13:49:27.588Z,47.95
2018-03-06T13:51:58.035Z,47.69
2018-03-06T13:54:28.116Z,48.04
2018-03-06T13:56:58.296Z,48.04
2018-03-06T13:59:28.794Z,48.18
2018-03-06T14:01:58.487Z,47.94
2018-03-06T14:04:28.292Z,48.10
2018-03-06T14:06:59.030Z,47.85
2018-03-06T14:09:28.939Z,47.81
2018-03-06T14:12:01.275Z,47.85
2018-03-06T14:14:31.232Z,48.13
2018-03-06T14:17:02.899Z,47.93
2018-03-06T14:19:34.132Z,48.35
2018-03-06T14:22:05.847Z,48.61
2018-03-06T14:24:35.827Z,48.51
2018-03-06T14:27:06.725Z,49.24
2018-03-06T14:29:36.391Z,49.34
2018-03-06T14:32:07.861Z,49.28
2018-03-06T14:34:37.479Z,48.82
2018-03-06T14:37:08.009Z,48.85
2018-03-06T14:39:37.624Z,49.38
2018-03-06T14:42:07.673Z,49.70
2018-03-06T14:44:37.209Z,49.79
2018-03-06T14:47:06.699Z,50.08
2018-03-06T14:49:36.259Z,50.02
2018-03-06T14:52:06.264Z,50.09
2018-03-06T14:54:36.018Z,50.48
2018-03-06T14:57:06.722Z,50.41
2018-03-06T14:59:36.293Z,50.56
2018-03-06T15:02:05.906Z,50.96
2018-03-06T15:04:35.663Z,51.11
2018-03-06T15:07:06.644Z,50.94
2018-03-06T15:09:36.318Z,51.15
2018-03-06T15:12:06.621Z,50.78
2018-03-06T15:14:44.265Z,50.88
2018-03-06T15:17:17.863Z,50.74
2018-03-06T15:19:54.128Z,50.57
2018-03-06T15:22:24.518Z,50.87
2018-03-06T15:24:56.422Z,51.48
2018-03-06T15:27:27.033Z,51.90
2018-03-06T15:29:59.248Z,52.51
2018-03-06T15:32:30.036Z,52.62
2018-03-06T15:35:00.555Z,53.01
2018-03-06T15:37:30.076Z,53.55
2018-03-06T15:40:02.311Z,53.44
2018-03-06T15:42:33.501Z,53.38
2018-03-06T15:45:04.560Z,53.33
2018-03-06T15:47:35.400Z,53.37
2018-03-06T15:50:06.554Z,53.62
2018-03-06T15:52:36.930Z,53.74
2018-03-06T15:55:06.926Z,54.36
2018-03-06T15:57:36.622Z,54.49
2018-03-06T16:00:07.502Z,54.56
2018-03-06T16:02:37.886Z,54.44
2018-03-06T16:05:10.890Z,54.71
2018-03-06T16:07:40.885Z,54.62
2018-03-06T16:10:11.866Z,54.12
2018-03-06T16:12:42.299Z,54.51
2018-03-06T16:15:12.848Z,54.28
2018-03-06T16:17:42.812Z,54.64
2018-03-06T16:20:12.906Z,54.96
2018-03-06T16:22:43.526Z,55.50
2018-03-06T16:25:15.554Z,55.85
2018-03-06T16:27:46.268Z,55.94
2018-03-06T16:30:16.536Z,57.08
2018-03-06T16:32:47.357Z,57.93
2018-03-06T16:35:17.783Z,58.10
2018-03-06T16:37:47.547Z,58.96
2018-03-06T16:40:17.619Z,58.58
2018-03-06T16:42:47.874Z,59.10
2018-03-06T16:45:18.657Z,59.03
2018-03-06T16:47:50.012Z,59.93
2018-03-06T16:50:19.787Z,60.11
2018-03-06T16:52:50.064Z,60.54
2018-03-06T16:55:20.009Z,61.06
2018-03-06T16:57:50.258Z,61.15
2018-03-06T17:00:19.974Z,60.97
2018-03-06T17:02:50.438Z,61.32
2018-03-06T17:05:21.223Z,61.52
2018-03-06T17:07:52.171Z,61.92
2018-03-06T17:10:22.517Z,62.43
2018-03-06T17:12:52.633Z,63.12
2018-03-06T17:15:23.846Z,62.50
2018-03-06T17:17:54.332Z,63.17
2018-03-06T17:20:24.956Z,63.61
2018-03-06T17:22:56.917Z,64.38
2018-03-06T17:25:28.954Z,64.55
2018-03-06T17:27:59.414Z,64.36
2018-03-06T17:30:29.150Z,64.57
2018-03-06T17:32:59.455Z,64.19
2018-03-06T17:36:33.186Z,64.22
2018-03-06T17:39:03.768Z,64.60
2018-03-06T17:41:35.780Z,64.41
2018-03-06T17:44:05.826Z,64.06
2018-03-06T17:46:35.787Z,64.58
2018-03-06T17:49:05.796Z,64.42
2018-03-06T17:51:35.508Z,64.85
2018-03-06T17:54:05.721Z,64.89
2018-03-06T17:56:35.703Z,65.08
2018-03-06T17:59:05.573Z,65.29
2018-03-06T18:01:36.100Z,65.39
2018-03-06T18:04:07.584Z,65.09
2018-03-06T18:06:37.734Z,65.84
2018-03-06T18:09:08.066Z,66.30
2018-03-06T18:11:37.755Z,65.67
2018-03-06T18:14:08.298Z,65.06
2018-03-06T18:16:38.214Z,65.61
2018-03-06T18:19:10.182Z,65.54
2018-03-06T18:21:41.001Z,65.20
2018-03-06T18:24:13.321Z,65.16
2018-03-06T18:26:43.994Z,65.31
2018-03-06T18:29:16.416Z,65.77
2018-03-06T18:31:47.029Z,65.04
2018-03-06T18:34:16.990Z,65.19
2018-03-06T18:36:47.792Z,64.99
2018-03-06T18:39:19.275Z,65.03
2018-03-06T18:41:49.196Z,65.88
2018-03-06T18:44:18.937Z,65.39
2018-03-06T18:46:50.109Z,64.54
2018-03-06T18:49:20.152Z,63.90
2018-03-06T18:51:51.834Z,64.14
2018-03-06T18:54:22.673Z,64.00
2018-03-06T18:56:54.930Z,64.64
2018-03-06T18:59:25.868Z,64.70
2018-03-06T19:08:26.487Z,64.57
2018-03-06T19:10:56.959Z,64.91
2018-03-06T19:13:27.347Z,65.04
2018-03-06T19:15:57.987Z,64.73
2018-03-06T19:18:27.985Z,64.17
2018-03-06T19:21:01.095Z,63.63
2018-03-06T19:23:32.276Z,63.37
2018-03-06T19:26:03.908Z,63.25
2018-03-06T19:28:35.047Z,63.15
2018-03-06T19:31:05.059Z,63.57
2018-03-06T19:33:36.576Z,63.27
2018-03-06T19:36:07.254Z,63.55
2018-03-06T19:38:38.100Z,63.37
2018-03-06T19:41:08.047Z,63.12
2018-03-06T19:43:38.579Z,63.24
2018-03-06T19:46:08.712Z,62.94
2018-03-06T19:48:39.058Z,62.60
2018-03-06T19:51:10.445Z,62.46
2018-03-06T19:53:40.295Z,62.27
2018-03-06T19:56:12.721Z,61.56
2018-03-06T19:58:42.869Z,61.39
2018-03-06T20:01:12.476Z,61.52
2018-03-06T20:03:42.614Z,62.74
2018-03-06T20:06:12.211Z,63.18
2018-03-06T20:08:42.016Z,63.48
2018-03-06T20:11:11.751Z,63.21
2018-03-06T20:13:41.742Z,63.34
2018-03-06T20:16:27.800Z,63.22
2018-03-06T20:19:01.864Z,62.66
2018-03-06T20:21:31.706Z,62.98
2018-03-06T20:24:07.483Z,62.91
2018-03-06T20:26:37.011Z,62.72
2018-03-06T20:29:06.595Z,63.06
2018-03-06T20:33:43.968Z,63.94
2018-03-06T20:36:13.864Z,63.27
2018-03-06T20:38:48.430Z,63.27
2018-03-06T20:41:18.251Z,63.04
2018-03-06T20:43:47.702Z,63.43
2018-03-06T20:46:22.129Z,63.32
2018-03-06T20:48:51.597Z,64.00
2018-03-06T20:51:23.104Z,63.40
2018-03-06T20:56:05.650Z,62.64
2018-03-06T20:58:35.311Z,61.94
2018-03-06T21:01:06.822Z,61.25
2018-03-06T21:03:36.414Z,61.74
2018-03-06T21:06:06.846Z,62.42
2018-03-06T21:08:38.526Z,62.14
2018-03-06T21:11:08.048Z,62.39
2018-03-06T21:13:37.476Z,62.63
2018-03-06T21:16:07.598Z,62.27
2018-03-06T21:18:37.117Z,62.78
2018-03-06T21:21:06.639Z,63.05
2018-03-06T21:23:36.889Z,63.68
2018-03-06T21:26:08.442Z,62.70
2018-03-06T21:28:38.466Z,62.56
2018-03-06T21:31:08.266Z,61.92
2018-03-06T21:33:38.084Z,62.12
2018-03-06T21:36:07.933Z,62.15
2018-03-06T21:38:37.704Z,62.61
2018-03-06T21:41:08.340Z,62.53
2018-03-06T21:43:37.853Z,62.92
2018-03-06T21:46:07.567Z,62.11
2018-03-06T21:48:37.000Z,61.83
2018-03-06T21:51:06.725Z,62.33
2018-03-06T21:53:36.502Z,62.08
2018-03-06T21:56:06.394Z,61.72
2018-03-06T21:58:35.829Z,61.64
2018-03-06T22:01:05.658Z,61.74
2018-03-06T22:03:35.091Z,62.27
2018-03-06T22:06:06.251Z,62.40
2018-03-06T22:08:36.732Z,62.31
2018-03-06T22:11:06.581Z,62.36
2018-03-06T22:13:36.166Z,62.33
2018-03-06T22:16:06.245Z,62.91
2018-03-06T22:18:35.986Z,63.25
2018-03-06T22:21:06.628Z,63.41
2018-03-06T22:23:36.889Z,63.92
2018-03-06T22:26:06.611Z,64.07
2018-03-06T22:28:36.268Z,64.50
2018-03-06T22:31:06.085Z,64.46
2018-03-06T22:33:35.718Z,64.96
2018-03-06T22:36:05.673Z,64.68
2018-03-06T22:38:35.671Z,64.56
2018-03-06T22:41:06.905Z,64.47
2018-03-06T22:43:36.749Z,65.07
2018-03-06T22:46:06.935Z,65.13
2018-03-06T22:48:39.298Z,64.93
2018-03-06T22:51:08.970Z,64.60
2018-03-06T22:53:39.513Z,64.38
2018-03-06T22:56:10.478Z,64.35
2018-03-06T22:58:40.195Z,64.55
2018-03-06T23:01:10.292Z,64.35
2018-03-06T23:03:39.788Z,64.37
2018-03-06T23:06:10.428Z,64.86
2018-03-06T23:08:40.285Z,64.46
2018-03-06T23:11:09.971Z,64.94
2018-03-06T23:13:39.463Z,64.76
2018-03-06T23:16:09.359Z,64.79
2018-03-06T23:18:38.877Z,65.71
2018-03-06T23:21:08.854Z,66.37
2018-03-06T23:23:39.724Z,66.14
2018-03-06T23:26:09.233Z,66.37
2018-03-06T23:28:41.325Z,66.58
2018-03-06T23:31:14.276Z,66.21
2018-03-06T23:33:43.891Z,66.14
2018-03-06T23:36:13.857Z,65.97
2018-03-06T23:41:20.467Z,65.64
2018-03-06T23:43:50.494Z,65.57
2018-03-06T23:46:22.376Z,65.12
2018-03-06T23:48:52.434Z,65.16
2018-03-06T23:51:24.154Z,65.07
2018-03-06T23:53:53.827Z,65.37
2018-03-06T23:56:23.778Z,65.62
2018-03-06T23:58:54.234Z,66.21
